sensor_id;sensor_type;location;lat;lon;timestamp;temperature;humidity
55634;DHT22;41504;53.162;6.788;2023-09-18T00:00:06;17.80;96.90
55634;DHT22;41504;53.162;6.788;2023-09-18T00:02:38;17.80;96.90
55634;DHT22;41504;53.162;6.788;2023-09-18T00:05:04;17.80;96.90
55634;DHT22;41504;53.162;6.788;2023-09-18T00:07:30;17.80;96.90
55634;DHT22;41504;53.162;6.788;2023-09-18T00:09:55;17.70;96.90
55634;DHT22;41504;53.162;6.788;2023-09-18T00:12:21;17.70;96.90
55634;DHT22;41504;53.162;6.788;2023-09-18T00:14:50;17.70;97.00
55634;DHT22;41504;53.162;6.788;2023-09-18T00:17:16;17.70;97.00
55634;DHT22;41504;53.162;6.788;2023-09-18T00:19:43;17.70;97.00
55634;DHT22;41504;53.162;6.788;2023-09-18T00:22:08;17.70;97.00
55634;DHT22;41504;53.162;6.788;2023-09-18T00:24:35;17.70;96.90
55634;DHT22;41504;53.162;6.788;2023-09-18T00:27:01;17.60;96.90
55634;DHT22;41504;53.162;6.788;2023-09-18T00:29:27;17.60;96.90
55634;DHT22;41504;53.162;6.788;2023-09-18T00:31:52;17.60;97.00
55634;DHT22;41504;53.162;6.788;2023-09-18T00:34:18;17.60;97.10
55634;DHT22;41504;53.162;6.788;2023-09-18T00:36:44;17.70;97.20
55634;DHT22;41504;53.162;6.788;2023-09-18T00:39:09;17.70;97.20
55634;DHT22;41504;53.162;6.788;2023-09-18T00:41:39;17.70;97.30
55634;DHT22;41504;53.162;6.788;2023-09-18T00:44:05;17.70;97.40
55634;DHT22;41504;53.162;6.788;2023-09-18T00:46:31;17.70;97.30
55634;DHT22;41504;53.162;6.788;2023-09-18T00:48:57;17.70;97.40
55634;DHT22;41504;53.162;6.788;2023-09-18T00:51:23;17.70;97.50
55634;DHT22;41504;53.162;6.788;2023-09-18T00:53:49;17.70;97.50
55634;DHT22;41504;53.162;6.788;2023-09-18T00:56:15;17.70;97.60
55634;DHT22;41504;53.162;6.788;2023-09-18T00:58:45;17.70;97.60
55634;DHT22;41504;53.162;6.788;2023-09-18T01:01:12;17.70;97.70
55634;DHT22;41504;53.162;6.788;2023-09-18T01:03:40;17.70;97.70
55634;DHT22;41504;53.162;6.788;2023-09-18T01:06:05;17.70;97.80
55634;DHT22;41504;53.162;6.788;2023-09-18T01:08:34;17.70;97.80
55634;DHT22;41504;53.162;6.788;2023-09-18T01:13:45;17.80;97.90
55634;DHT22;41504;53.162;6.788;2023-09-18T01:16:19;17.80;97.90
55634;DHT22;41504;53.162;6.788;2023-09-18T01:18:52;17.80;97.90
55634;DHT22;41504;53.162;6.788;2023-09-18T01:21:21;17.80;98.00
55634;DHT22;41504;53.162;6.788;2023-09-18T01:23:47;17.80;98.00
55634;DHT22;41504;53.162;6.788;2023-09-18T01:26:14;17.80;98.00
55634;DHT22;41504;53.162;6.788;2023-09-18T01:28:40;17.80;98.00
55634;DHT22;41504;53.162;6.788;2023-09-18T01:31:05;17.80;98.00
55634;DHT22;41504;53.162;6.788;2023-09-18T01:33:34;17.80;98.00
55634;DHT22;41504;53.162;6.788;2023-09-18T01:36:03;17.80;98.00
55634;DHT22;41504;53.162;6.788;2023-09-18T01:38:30;17.80;98.00
55634;DHT22;41504;53.162;6.788;2023-09-18T01:40:56;17.80;98.10
55634;DHT22;41504;53.162;6.788;2023-09-18T01:43:22;17.80;98.00
55634;DHT22;41504;53.162;6.788;2023-09-18T01:45:48;17.80;98.10
55634;DHT22;41504;53.162;6.788;2023-09-18T01:48:14;17.80;98.00
55634;DHT22;41504;53.162;6.788;2023-09-18T01:50:43;17.80;98.00
55634;DHT22;41504;53.162;6.788;2023-09-18T01:53:09;17.70;98.00
55634;DHT22;41504;53.162;6.788;2023-09-18T01:55:35;17.70;98.00
55634;DHT22;41504;53.162;6.788;2023-09-18T01:58:00;17.70;98.00
55634;DHT22;41504;53.162;6.788;2023-09-18T02:00:26;17.70;98.00
55634;DHT22;41504;53.162;6.788;2023-09-18T02:02:52;17.70;98.00
55634;DHT22;41504;53.162;6.788;2023-09-18T02:05:17;17.60;98.00
55634;DHT22;41504;53.162;6.788;2023-09-18T02:07:43;17.70;98.00
55634;DHT22;41504;53.162;6.788;2023-09-18T02:10:09;17.60;98.00
55634;DHT22;41504;53.162;6.788;2023-09-18T02:12:34;17.60;98.00
55634;DHT22;41504;53.162;6.788;2023-09-18T02:15:00;17.60;98.00
55634;DHT22;41504;53.162;6.788;2023-09-18T02:17:30;17.70;98.10
55634;DHT22;41504;53.162;6.788;2023-09-18T02:19:55;17.60;98.00
55634;DHT22;41504;53.162;6.788;2023-09-18T02:22:21;17.70;98.10
55634;DHT22;41504;53.162;6.788;2023-09-18T02:24:47;17.60;98.10
55634;DHT22;41504;53.162;6.788;2023-09-18T02:27:13;17.60;98.10
55634;DHT22;41504;53.162;6.788;2023-09-18T02:29:38;17.60;98.10
55634;DHT22;41504;53.162;6.788;2023-09-18T02:32:04;17.60;98.10
55634;DHT22;41504;53.162;6.788;2023-09-18T02:34:30;17.60;98.10
55634;DHT22;41504;53.162;6.788;2023-09-18T02:36:56;17.60;98.10
55634;DHT22;41504;53.162;6.788;2023-09-18T02:39:22;17.70;98.10
55634;DHT22;41504;53.162;6.788;2023-09-18T02:41:48;17.60;98.10
55634;DHT22;41504;53.162;6.788;2023-09-18T02:44:14;17.60;98.10
55634;DHT22;41504;53.162;6.788;2023-09-18T02:46:42;17.60;98.10
55634;DHT22;41504;53.162;6.788;2023-09-18T02:49:08;17.60;98.10
55634;DHT22;41504;53.162;6.788;2023-09-18T02:51:34;17.60;98.20
55634;DHT22;41504;53.162;6.788;2023-09-18T02:54:00;17.60;98.20
55634;DHT22;41504;53.162;6.788;2023-09-18T02:56:25;17.60;98.20
55634;DHT22;41504;53.162;6.788;2023-09-18T02:58:51;17.60;98.20
55634;DHT22;41504;53.162;6.788;2023-09-18T03:01:17;17.60;98.20
55634;DHT22;41504;53.162;6.788;2023-09-18T03:03:43;17.60;98.20
55634;DHT22;41504;53.162;6.788;2023-09-18T03:06:08;17.60;98.20
55634;DHT22;41504;53.162;6.788;2023-09-18T03:08:35;17.60;98.20
55634;DHT22;41504;53.162;6.788;2023-09-18T03:11:01;17.60;98.20
55634;DHT22;41504;53.162;6.788;2023-09-18T03:13:27;17.60;98.20
55634;DHT22;41504;53.162;6.788;2023-09-18T03:15:54;17.60;98.20
55634;DHT22;41504;53.162;6.788;2023-09-18T03:18:20;17.60;98.20
55634;DHT22;41504;53.162;6.788;2023-09-18T03:20:45;17.60;98.20
55634;DHT22;41504;53.162;6.788;2023-09-18T03:23:11;17.60;98.20
55634;DHT22;41504;53.162;6.788;2023-09-18T03:25:37;17.60;98.20
55634;DHT22;41504;53.162;6.788;2023-09-18T03:28:03;17.60;98.20
55634;DHT22;41504;53.162;6.788;2023-09-18T03:30:29;17.60;98.20
55634;DHT22;41504;53.162;6.788;2023-09-18T03:32:55;17.60;98.20
55634;DHT22;41504;53.162;6.788;2023-09-18T03:35:21;17.60;98.30
55634;DHT22;41504;53.162;6.788;2023-09-18T03:37:48;17.60;98.30
55634;DHT22;41504;53.162;6.788;2023-09-18T03:40:15;17.60;98.30
55634;DHT22;41504;53.162;6.788;2023-09-18T03:42:41;17.60;98.30
55634;DHT22;41504;53.162;6.788;2023-09-18T03:45:09;17.60;98.50
55634;DHT22;41504;53.162;6.788;2023-09-18T03:47:40;17.60;98.30
55634;DHT22;41504;53.162;6.788;2023-09-18T03:50:07;17.60;98.30
55634;DHT22;41504;53.162;6.788;2023-09-18T03:52:33;17.60;98.30
55634;DHT22;41504;53.162;6.788;2023-09-18T03:54:58;17.50;98.30
55634;DHT22;41504;53.162;6.788;2023-09-18T03:57:24;17.50;98.40
55634;DHT22;41504;53.162;6.788;2023-09-18T03:59:50;17.50;98.30
55634;DHT22;41504;53.162;6.788;2023-09-18T04:02:16;17.50;98.40
55634;DHT22;41504;53.162;6.788;2023-09-18T04:04:41;17.50;98.40
55634;DHT22;41504;53.162;6.788;2023-09-18T04:07:08;17.50;98.40
55634;DHT22;41504;53.162;6.788;2023-09-18T04:09:34;17.60;98.40
55634;DHT22;41504;53.162;6.788;2023-09-18T04:12:03;17.50;98.40
55634;DHT22;41504;53.162;6.788;2023-09-18T04:14:31;17.50;98.40
55634;DHT22;41504;53.162;6.788;2023-09-18T04:16:57;17.50;98.50
55634;DHT22;41504;53.162;6.788;2023-09-18T04:19:23;17.50;98.50
55634;DHT22;41504;53.162;6.788;2023-09-18T04:21:48;17.60;98.50
55634;DHT22;41504;53.162;6.788;2023-09-18T04:24:14;17.60;98.50
55634;DHT22;41504;53.162;6.788;2023-09-18T04:26:40;17.60;98.50
55634;DHT22;41504;53.162;6.788;2023-09-18T04:29:09;17.60;98.50
55634;DHT22;41504;53.162;6.788;2023-09-18T04:31:35;17.60;98.50
55634;DHT22;41504;53.162;6.788;2023-09-18T04:34:00;17.60;98.50
55634;DHT22;41504;53.162;6.788;2023-09-18T04:36:26;17.60;98.50
55634;DHT22;41504;53.162;6.788;2023-09-18T04:38:52;17.60;98.50
55634;DHT22;41504;53.162;6.788;2023-09-18T04:41:20;17.60;98.60
55634;DHT22;41504;53.162;6.788;2023-09-18T04:43:46;17.60;98.60
55634;DHT22;41504;53.162;6.788;2023-09-18T04:46:12;17.60;98.60
55634;DHT22;41504;53.162;6.788;2023-09-18T04:48:38;17.60;98.60
55634;DHT22;41504;53.162;6.788;2023-09-18T04:51:03;17.60;98.60
55634;DHT22;41504;53.162;6.788;2023-09-18T04:53:30;17.60;98.60
55634;DHT22;41504;53.162;6.788;2023-09-18T04:55:56;17.60;98.60
55634;DHT22;41504;53.162;6.788;2023-09-18T04:58:22;17.60;98.60
55634;DHT22;41504;53.162;6.788;2023-09-18T05:00:58;17.60;98.60
55634;DHT22;41504;53.162;6.788;2023-09-18T05:03:24;17.60;98.60
55634;DHT22;41504;53.162;6.788;2023-09-18T05:05:50;17.60;98.60
55634;DHT22;41504;53.162;6.788;2023-09-18T05:08:16;17.60;98.70
55634;DHT22;41504;53.162;6.788;2023-09-18T05:10:42;17.60;98.70
55634;DHT22;41504;53.162;6.788;2023-09-18T05:13:09;17.70;98.70
55634;DHT22;41504;53.162;6.788;2023-09-18T05:15:35;17.70;98.70
55634;DHT22;41504;53.162;6.788;2023-09-18T05:18:01;17.70;98.70
55634;DHT22;41504;53.162;6.788;2023-09-18T05:20:28;17.70;98.70
55634;DHT22;41504;53.162;6.788;2023-09-18T05:22:55;17.70;98.70
55634;DHT22;41504;53.162;6.788;2023-09-18T05:25:23;17.70;98.70
55634;DHT22;41504;53.162;6.788;2023-09-18T05:27:51;17.70;98.70
55634;DHT22;41504;53.162;6.788;2023-09-18T05:30:26;17.70;98.70
55634;DHT22;41504;53.162;6.788;2023-09-18T05:32:56;17.70;98.70
55634;DHT22;41504;53.162;6.788;2023-09-18T05:35:22;17.80;98.80
55634;DHT22;41504;53.162;6.788;2023-09-18T05:37:49;17.80;98.80
55634;DHT22;41504;53.162;6.788;2023-09-18T05:40:16;17.80;98.80
55634;DHT22;41504;53.162;6.788;2023-09-18T05:42:43;17.80;99.10
55634;DHT22;41504;53.162;6.788;2023-09-18T05:45:10;17.80;98.90
55634;DHT22;41504;53.162;6.788;2023-09-18T05:47:39;17.80;98.90
55634;DHT22;41504;53.162;6.788;2023-09-18T05:50:09;17.90;98.90
55634;DHT22;41504;53.162;6.788;2023-09-18T05:52:35;17.90;98.90
55634;DHT22;41504;53.162;6.788;2023-09-18T05:55:05;17.90;98.90
55634;DHT22;41504;53.162;6.788;2023-09-18T05:57:32;18.00;98.90
55634;DHT22;41504;53.162;6.788;2023-09-18T05:59:58;18.00;98.80
55634;DHT22;41504;53.162;6.788;2023-09-18T06:02:24;18.00;98.80
55634;DHT22;41504;53.162;6.788;2023-09-18T06:04:56;18.10;98.90
55634;DHT22;41504;53.162;6.788;2023-09-18T06:07:24;18.00;98.80
55634;DHT22;41504;53.162;6.788;2023-09-18T06:09:50;18.10;98.80
55634;DHT22;41504;53.162;6.788;2023-09-18T06:12:16;18.10;98.80
55634;DHT22;41504;53.162;6.788;2023-09-18T06:14:41;18.10;98.80
55634;DHT22;41504;53.162;6.788;2023-09-18T06:17:08;18.10;98.80
55634;DHT22;41504;53.162;6.788;2023-09-18T06:19:35;18.20;98.80
55634;DHT22;41504;53.162;6.788;2023-09-18T06:22:01;18.20;98.80
55634;DHT22;41504;53.162;6.788;2023-09-18T06:24:27;18.20;98.80
55634;DHT22;41504;53.162;6.788;2023-09-18T06:26:53;18.20;98.80
55634;DHT22;41504;53.162;6.788;2023-09-18T06:29:19;18.20;98.80
55634;DHT22;41504;53.162;6.788;2023-09-18T06:31:45;18.20;98.80
55634;DHT22;41504;53.162;6.788;2023-09-18T06:34:11;18.20;98.80
55634;DHT22;41504;53.162;6.788;2023-09-18T06:36:39;18.20;98.80
55634;DHT22;41504;53.162;6.788;2023-09-18T06:39:06;18.20;98.80
55634;DHT22;41504;53.162;6.788;2023-09-18T06:41:34;18.30;98.90
55634;DHT22;41504;53.162;6.788;2023-09-18T06:44:01;18.30;98.90
55634;DHT22;41504;53.162;6.788;2023-09-18T06:46:29;18.30;99.00
55634;DHT22;41504;53.162;6.788;2023-09-18T06:48:56;18.30;99.00
55634;DHT22;41504;53.162;6.788;2023-09-18T06:51:22;18.30;99.00
55634;DHT22;41504;53.162;6.788;2023-09-18T06:53:48;18.20;99.10
55634;DHT22;41504;53.162;6.788;2023-09-18T06:56:14;18.30;99.10
55634;DHT22;41504;53.162;6.788;2023-09-18T06:58:39;18.20;99.20
55634;DHT22;41504;53.162;6.788;2023-09-18T07:01:05;18.30;99.20
55634;DHT22;41504;53.162;6.788;2023-09-18T07:03:32;18.30;99.30
55634;DHT22;41504;53.162;6.788;2023-09-18T07:06:00;18.20;99.30
55634;DHT22;41504;53.162;6.788;2023-09-18T07:08:26;18.20;99.30
55634;DHT22;41504;53.162;6.788;2023-09-18T07:10:52;18.20;99.30
55634;DHT22;41504;53.162;6.788;2023-09-18T07:13:17;18.30;99.40
55634;DHT22;41504;53.162;6.788;2023-09-18T07:15:43;18.20;99.40
55634;DHT22;41504;53.162;6.788;2023-09-18T07:18:10;18.20;99.50
55634;DHT22;41504;53.162;6.788;2023-09-18T07:20:40;18.20;99.50
55634;DHT22;41504;53.162;6.788;2023-09-18T07:23:06;18.20;99.70
55634;DHT22;41504;53.162;6.788;2023-09-18T07:25:34;18.20;99.80
55634;DHT22;41504;53.162;6.788;2023-09-18T07:28:00;18.20;99.90
55634;DHT22;41504;53.162;6.788;2023-09-18T07:30:26;18.20;99.90
55634;DHT22;41504;53.162;6.788;2023-09-18T07:32:55;18.20;99.90
55634;DHT22;41504;53.162;6.788;2023-09-18T07:35:30;18.20;99.90
55634;DHT22;41504;53.162;6.788;2023-09-18T07:37:56;18.20;99.90
55634;DHT22;41504;53.162;6.788;2023-09-18T07:40:22;18.10;99.90
55634;DHT22;41504;53.162;6.788;2023-09-18T07:42:48;18.20;99.90
55634;DHT22;41504;53.162;6.788;2023-09-18T07:45:17;18.20;99.90
55634;DHT22;41504;53.162;6.788;2023-09-18T07:47:43;18.20;99.90
55634;DHT22;41504;53.162;6.788;2023-09-18T07:50:09;18.20;99.90
55634;DHT22;41504;53.162;6.788;2023-09-18T07:52:35;18.20;99.90
55634;DHT22;41504;53.162;6.788;2023-09-18T07:55:01;18.20;99.90
55634;DHT22;41504;53.162;6.788;2023-09-18T07:57:28;18.20;99.90
55634;DHT22;41504;53.162;6.788;2023-09-18T07:59:55;18.20;99.90
55634;DHT22;41504;53.162;6.788;2023-09-18T08:02:21;18.20;99.90
55634;DHT22;41504;53.162;6.788;2023-09-18T08:04:48;18.20;99.90
55634;DHT22;41504;53.162;6.788;2023-09-18T08:07:13;18.20;99.90
55634;DHT22;41504;53.162;6.788;2023-09-18T08:09:39;18.20;99.90
55634;DHT22;41504;53.162;6.788;2023-09-18T08:12:09;18.20;99.90
55634;DHT22;41504;53.162;6.788;2023-09-18T08:14:34;18.20;99.90
55634;DHT22;41504;53.162;6.788;2023-09-18T08:17:04;18.30;99.90
55634;DHT22;41504;53.162;6.788;2023-09-18T08:19:31;18.30;99.90
55634;DHT22;41504;53.162;6.788;2023-09-18T08:22:01;18.30;99.90
55634;DHT22;41504;53.162;6.788;2023-09-18T08:24:27;18.30;99.90
55634;DHT22;41504;53.162;6.788;2023-09-18T08:26:53;18.30;99.90
55634;DHT22;41504;53.162;6.788;2023-09-18T08:29:19;18.30;99.90
55634;DHT22;41504;53.162;6.788;2023-09-18T08:31:45;18.30;99.90
55634;DHT22;41504;53.162;6.788;2023-09-18T08:34:11;18.30;99.90
55634;DHT22;41504;53.162;6.788;2023-09-18T08:36:37;18.30;99.90
55634;DHT22;41504;53.162;6.788;2023-09-18T08:39:03;18.40;99.90
55634;DHT22;41504;53.162;6.788;2023-09-18T08:41:38;18.40;99.90
55634;DHT22;41504;53.162;6.788;2023-09-18T08:44:07;18.40;99.90
55634;DHT22;41504;53.162;6.788;2023-09-18T08:46:34;18.40;99.90
55634;DHT22;41504;53.162;6.788;2023-09-18T08:49:01;18.40;99.90
55634;DHT22;41504;53.162;6.788;2023-09-18T08:51:31;18.40;99.90
55634;DHT22;41504;53.162;6.788;2023-09-18T08:53:58;18.40;99.90
55634;DHT22;41504;53.162;6.788;2023-09-18T08:56:24;18.30;99.90
55634;DHT22;41504;53.162;6.788;2023-09-18T08:58:50;18.40;99.90
55634;DHT22;41504;53.162;6.788;2023-09-18T09:01:16;18.40;99.90
55634;DHT22;41504;53.162;6.788;2023-09-18T09:03:42;18.50;99.90
55634;DHT22;41504;53.162;6.788;2023-09-18T09:06:11;18.50;99.90
55634;DHT22;41504;53.162;6.788;2023-09-18T09:08:37;18.50;99.90
55634;DHT22;41504;53.162;6.788;2023-09-18T09:11:04;18.50;99.90
55634;DHT22;41504;53.162;6.788;2023-09-18T09:13:30;18.60;99.90
55634;DHT22;41504;53.162;6.788;2023-09-18T09:15:59;18.60;99.90
55634;DHT22;41504;53.162;6.788;2023-09-18T09:18:27;18.60;99.90
55634;DHT22;41504;53.162;6.788;2023-09-18T09:21:03;18.60;99.90
55634;DHT22;41504;53.162;6.788;2023-09-18T09:23:46;18.70;99.90
55634;DHT22;41504;53.162;6.788;2023-09-18T09:26:19;18.70;99.90
55634;DHT22;41504;53.162;6.788;2023-09-18T09:28:45;18.70;99.90
55634;DHT22;41504;53.162;6.788;2023-09-18T09:31:11;18.70;99.90
55634;DHT22;41504;53.162;6.788;2023-09-18T09:33:51;18.70;99.90
55634;DHT22;41504;53.162;6.788;2023-09-18T09:36:22;18.70;99.90
55634;DHT22;41504;53.162;6.788;2023-09-18T09:38:48;18.70;99.90
55634;DHT22;41504;53.162;6.788;2023-09-18T09:41:15;18.70;99.90
55634;DHT22;41504;53.162;6.788;2023-09-18T09:43:43;18.80;99.90
55634;DHT22;41504;53.162;6.788;2023-09-18T09:46:17;18.80;99.90
55634;DHT22;41504;53.162;6.788;2023-09-18T09:49:03;18.80;99.90
55634;DHT22;41504;53.162;6.788;2023-09-18T09:51:30;18.90;99.90
55634;DHT22;41504;53.162;6.788;2023-09-18T09:54:00;18.90;99.90
55634;DHT22;41504;53.162;6.788;2023-09-18T09:56:42;18.90;99.90
55634;DHT22;41504;53.162;6.788;2023-09-18T09:59:09;19.00;99.90
55634;DHT22;41504;53.162;6.788;2023-09-18T10:01:37;19.00;99.90
55634;DHT22;41504;53.162;6.788;2023-09-18T10:04:14;19.10;99.90
55634;DHT22;41504;53.162;6.788;2023-09-18T10:06:43;19.10;99.90
55634;DHT22;41504;53.162;6.788;2023-09-18T10:09:12;19.10;99.90
55634;DHT22;41504;53.162;6.788;2023-09-18T10:11:42;19.10;99.90
55634;DHT22;41504;53.162;6.788;2023-09-18T10:14:17;19.20;99.90
55634;DHT22;41504;53.162;6.788;2023-09-18T10:16:53;19.30;99.90
55634;DHT22;41504;53.162;6.788;2023-09-18T10:20:08;19.40;99.90
55634;DHT22;41504;53.162;6.788;2023-09-18T10:22:44;19.40;99.90
55634;DHT22;41504;53.162;6.788;2023-09-18T10:25:18;19.50;99.90
55634;DHT22;41504;53.162;6.788;2023-09-18T10:27:50;19.50;99.90
55634;DHT22;41504;53.162;6.788;2023-09-18T10:30:19;19.60;99.90
55634;DHT22;41504;53.162;6.788;2023-09-18T10:32:45;19.60;99.90
55634;DHT22;41504;53.162;6.788;2023-09-18T10:35:12;19.60;99.90
55634;DHT22;41504;53.162;6.788;2023-09-18T10:37:38;19.70;99.90
55634;DHT22;41504;53.162;6.788;2023-09-18T10:40:08;19.80;99.90
55634;DHT22;41504;53.162;6.788;2023-09-18T10:42:40;19.90;99.90
55634;DHT22;41504;53.162;6.788;2023-09-18T10:45:11;20.00;99.90
55634;DHT22;41504;53.162;6.788;2023-09-18T10:47:42;20.00;99.90
55634;DHT22;41504;53.162;6.788;2023-09-18T10:50:11;20.10;99.90
55634;DHT22;41504;53.162;6.788;2023-09-18T10:52:43;20.20;99.90
55634;DHT22;41504;53.162;6.788;2023-09-18T10:55:13;20.20;99.90
55634;DHT22;41504;53.162;6.788;2023-09-18T10:57:56;20.40;99.90
55634;DHT22;41504;53.162;6.788;2023-09-18T11:00:25;20.40;99.60
55634;DHT22;41504;53.162;6.788;2023-09-18T11:02:53;20.50;99.30
55634;DHT22;41504;53.162;6.788;2023-09-18T11:05:29;20.60;98.90
55634;DHT22;41504;53.162;6.788;2023-09-18T11:08:24;20.70;98.80
55634;DHT22;41504;53.162;6.788;2023-09-18T11:10:59;20.80;98.80
55634;DHT22;41504;53.162;6.788;2023-09-18T11:13:30;21.00;98.20
55634;DHT22;41504;53.162;6.788;2023-09-18T11:16:01;21.10;97.70
55634;DHT22;41504;53.162;6.788;2023-09-18T11:18:35;21.10;96.80
55634;DHT22;41504;53.162;6.788;2023-09-18T11:21:10;21.10;96.80
55634;DHT22;41504;53.162;6.788;2023-09-18T11:23:39;21.10;96.80
55634;DHT22;41504;53.162;6.788;2023-09-18T11:26:09;21.20;96.20
55634;DHT22;41504;53.162;6.788;2023-09-18T11:28:37;21.20;95.80
55634;DHT22;41504;53.162;6.788;2023-09-18T11:31:03;21.20;95.60
55634;DHT22;41504;53.162;6.788;2023-09-18T11:33:37;21.20;95.60
55634;DHT22;41504;53.162;6.788;2023-09-18T11:36:12;21.10;95.20
55634;DHT22;41504;53.162;6.788;2023-09-18T11:39:00;21.10;95.40
55634;DHT22;41504;53.162;6.788;2023-09-18T11:41:35;21.00;95.30
55634;DHT22;41504;53.162;6.788;2023-09-18T11:46:44;20.80;95.70
55634;DHT22;41504;53.162;6.788;2023-09-18T11:49:13;20.80;96.10
55634;DHT22;41504;53.162;6.788;2023-09-18T11:51:40;21.00;96.40
55634;DHT22;41504;53.162;6.788;2023-09-18T11:54:07;21.10;95.90
55634;DHT22;41504;53.162;6.788;2023-09-18T11:56:34;21.30;95.30
55634;DHT22;41504;53.162;6.788;2023-09-18T11:58:59;21.30;95.20
55634;DHT22;41504;53.162;6.788;2023-09-18T12:01:30;21.40;94.60
55634;DHT22;41504;53.162;6.788;2023-09-18T12:04:00;21.40;94.70
55634;DHT22;41504;53.162;6.788;2023-09-18T12:06:26;21.40;94.60
55634;DHT22;41504;53.162;6.788;2023-09-18T12:08:53;21.40;94.60
55634;DHT22;41504;53.162;6.788;2023-09-18T12:11:20;21.30;94.40
55634;DHT22;41504;53.162;6.788;2023-09-18T12:13:55;21.30;94.70
55634;DHT22;41504;53.162;6.788;2023-09-18T12:16:21;21.30;94.20
55634;DHT22;41504;53.162;6.788;2023-09-18T12:18:50;21.20;94.40
55634;DHT22;41504;53.162;6.788;2023-09-18T12:21:16;21.30;94.60
55634;DHT22;41504;53.162;6.788;2023-09-18T12:23:44;21.30;94.60
55634;DHT22;41504;53.162;6.788;2023-09-18T12:26:14;21.30;94.30
55634;DHT22;41504;53.162;6.788;2023-09-18T12:28:41;21.50;93.90
55634;DHT22;41504;53.162;6.788;2023-09-18T12:31:15;21.60;94.10
55634;DHT22;41504;53.162;6.788;2023-09-18T12:33:42;21.70;93.40
55634;DHT22;41504;53.162;6.788;2023-09-18T12:36:12;21.80;92.70
55634;DHT22;41504;53.162;6.788;2023-09-18T12:38:40;21.70;92.60
55634;DHT22;41504;53.162;6.788;2023-09-18T12:41:06;21.80;92.60
55634;DHT22;41504;53.162;6.788;2023-09-18T12:43:39;21.90;92.20
55634;DHT22;41504;53.162;6.788;2023-09-18T12:46:10;21.90;91.80
55634;DHT22;41504;53.162;6.788;2023-09-18T12:48:40;22.00;91.80
55634;DHT22;41504;53.162;6.788;2023-09-18T12:51:14;22.10;91.50
55634;DHT22;41504;53.162;6.788;2023-09-18T12:53:41;22.20;90.50
55634;DHT22;41504;53.162;6.788;2023-09-18T12:56:12;22.20;90.80
55634;DHT22;41504;53.162;6.788;2023-09-18T12:58:39;22.20;90.90
55634;DHT22;41504;53.162;6.788;2023-09-18T13:01:09;22.30;90.60
55634;DHT22;41504;53.162;6.788;2023-09-18T13:03:44;22.30;90.70
55634;DHT22;41504;53.162;6.788;2023-09-18T13:06:18;22.40;90.50
55634;DHT22;41504;53.162;6.788;2023-09-18T13:08:45;22.40;90.00
55634;DHT22;41504;53.162;6.788;2023-09-18T13:11:10;22.50;88.90
55634;DHT22;41504;53.162;6.788;2023-09-18T13:13:37;22.50;89.20
55634;DHT22;41504;53.162;6.788;2023-09-18T13:16:10;22.60;88.60
55634;DHT22;41504;53.162;6.788;2023-09-18T13:18:39;22.70;88.60
55634;DHT22;41504;53.162;6.788;2023-09-18T13:21:12;22.70;89.10
55634;DHT22;41504;53.162;6.788;2023-09-18T13:23:39;22.80;87.80
55634;DHT22;41504;53.162;6.788;2023-09-18T13:26:07;22.90;86.30
55634;DHT22;41504;53.162;6.788;2023-09-18T13:28:39;22.90;86.30
55634;DHT22;41504;53.162;6.788;2023-09-18T13:31:06;22.90;85.50
55634;DHT22;41504;53.162;6.788;2023-09-18T13:33:33;22.80;85.80
55634;DHT22;41504;53.162;6.788;2023-09-18T13:35:59;22.50;87.10
55634;DHT22;41504;53.162;6.788;2023-09-18T13:38:25;22.40;87.10
55634;DHT22;41504;53.162;6.788;2023-09-18T13:40:53;22.20;87.80
55634;DHT22;41504;53.162;6.788;2023-09-18T13:43:20;22.20;87.90
55634;DHT22;41504;53.162;6.788;2023-09-18T13:45:48;22.20;88.40
55634;DHT22;41504;53.162;6.788;2023-09-18T13:48:17;22.30;89.00
55634;DHT22;41504;53.162;6.788;2023-09-18T13:50:43;22.40;88.20
55634;DHT22;41504;53.162;6.788;2023-09-18T13:53:09;22.60;87.50
55634;DHT22;41504;53.162;6.788;2023-09-18T13:55:35;22.70;87.20
55634;DHT22;41504;53.162;6.788;2023-09-18T13:58:01;22.90;86.80
55634;DHT22;41504;53.162;6.788;2023-09-18T14:00:30;23.10;85.00
55634;DHT22;41504;53.162;6.788;2023-09-18T14:02:56;23.10;83.70
55634;DHT22;41504;53.162;6.788;2023-09-18T14:05:22;23.00;82.90
55634;DHT22;41504;53.162;6.788;2023-09-18T14:07:48;23.00;82.60
55634;DHT22;41504;53.162;6.788;2023-09-18T14:10:15;22.90;82.20
55634;DHT22;41504;53.162;6.788;2023-09-18T14:12:44;22.70;82.10
55634;DHT22;41504;53.162;6.788;2023-09-18T14:15:10;22.60;82.90
55634;DHT22;41504;53.162;6.788;2023-09-18T14:17:39;22.50;83.20
55634;DHT22;41504;53.162;6.788;2023-09-18T14:20:05;22.60;83.40
55634;DHT22;41504;53.162;6.788;2023-09-18T14:22:39;22.80;82.80
55634;DHT22;41504;53.162;6.788;2023-09-18T14:25:05;23.00;81.10
55634;DHT22;41504;53.162;6.788;2023-09-18T14:27:34;23.00;80.50
55634;DHT22;41504;53.162;6.788;2023-09-18T14:30:00;22.90;81.50
55634;DHT22;41504;53.162;6.788;2023-09-18T14:32:29;22.90;82.00
55634;DHT22;41504;53.162;6.788;2023-09-18T14:34:55;22.90;82.10
55634;DHT22;41504;53.162;6.788;2023-09-18T14:37:21;22.90;82.30
55634;DHT22;41504;53.162;6.788;2023-09-18T14:39:46;22.90;82.10
55634;DHT22;41504;53.162;6.788;2023-09-18T14:42:12;23.00;80.70
55634;DHT22;41504;53.162;6.788;2023-09-18T14:44:38;23.10;80.10
55634;DHT22;41504;53.162;6.788;2023-09-18T14:47:12;23.20;79.50
55634;DHT22;41504;53.162;6.788;2023-09-18T14:49:38;23.10;80.20
55634;DHT22;41504;53.162;6.788;2023-09-18T14:52:05;23.10;79.80
55634;DHT22;41504;53.162;6.788;2023-09-18T14:54:31;23.00;80.30
55634;DHT22;41504;53.162;6.788;2023-09-18T14:56:56;23.00;80.60
55634;DHT22;41504;53.162;6.788;2023-09-18T14:59:23;23.00;80.20
55634;DHT22;41504;53.162;6.788;2023-09-18T15:01:49;22.90;79.90
55634;DHT22;41504;53.162;6.788;2023-09-18T15:04:14;22.70;79.80
55634;DHT22;41504;53.162;6.788;2023-09-18T15:06:40;22.50;80.90
55634;DHT22;41504;53.162;6.788;2023-09-18T15:09:06;22.40;81.50
55634;DHT22;41504;53.162;6.788;2023-09-18T15:11:33;22.30;81.30
55634;DHT22;41504;53.162;6.788;2023-09-18T15:14:01;22.30;81.90
55634;DHT22;41504;53.162;6.788;2023-09-18T15:16:27;22.40;81.20
55634;DHT22;41504;53.162;6.788;2023-09-18T15:18:56;22.60;79.60
55634;DHT22;41504;53.162;6.788;2023-09-18T15:21:21;22.70;78.80
55634;DHT22;41504;53.162;6.788;2023-09-18T15:23:47;22.90;78.40
55634;DHT22;41504;53.162;6.788;2023-09-18T15:26:15;23.00;77.30
55634;DHT22;41504;53.162;6.788;2023-09-18T15:28:41;23.10;77.10
55634;DHT22;41504;53.162;6.788;2023-09-18T15:31:07;23.20;76.70
55634;DHT22;41504;53.162;6.788;2023-09-18T15:33:32;23.30;76.30
55634;DHT22;41504;53.162;6.788;2023-09-18T15:35:58;23.30;75.60
55634;DHT22;41504;53.162;6.788;2023-09-18T15:38:24;23.30;75.10